Main page
METAR-TAF:

METAR-TAF

Airports :

Castres–Mazamet Airport

Castres, France

latitude: 43-33-25N, longitude: 2-17-21E, elevation: 239 m

Current weather observation

The report was made 19 minutes ago, at 06:00 UTC
Wind 6 kt from the East
Temperature 15°C
Humidity 77%
Pressure 1017 hPa
Visibility 10 km or more
no clouds below 1500 m and no cumulonimbus

METAR: LFCK 080600Z AUTO 09006KT CAVOK 15/11 Q1017 NOSIG

Time: 08:19 (06:19 UTC)

Forecast

The report was made 1 hour and 19 minutes ago, at 05:00 UTC
Forecast valid from 08 at 06 UTC to 08 at 15 UTC
Wind 5 kt from the East
Visibility 10 km or more
no clouds below 1500 m and no cumulonimbus
Becoming
from 08 at 07 UTC to 08 at 09 UTC
Wind 14 kt from the East/Southeast
Temporary
from 08 at 10 UTC to 08 at 15 UTC
Wind 17 kt from the East/Southeast with gusts up to 28 kt

TAF: LFCK 080500Z 0806/0815 09005KT CAVOK BECMG 0807/0809 12014KT TEMPO 0810/0815 12017G28KT

Weather observations and forecasts of more than 4000 airports (METAR and TAF reports).

The available stations are represented by yellow and red dots on the map.

Hover mouse over dot to see the name of the station.

Then click to see weather observations and forecasts.

To change the map : click on the green buttons with a black cross to zoom in, on the green button with a dash to zoom out, or on the green arrows for adjacent maps.


METAR-TAF: